Time;durP1;ratioP1;P1;durP2;ratioP2;P2;SDS_P1;SDS_P2;PMS_P1;PMS_P2;Temp;Humidity;BMP_temperature;BMP_pressure;BME280_temperature;BME280_humidity;BME280_pressure;Samples;Min_cycle;Max_cycle;Signal;HPM_P1;HPM_P2
2023/10/22 00:00:07;;;;;;;11.60;6.25;;;;;;;;;;5070862;28;20033;-78
2023/10/22 00:02:36;;;;;;;7.65;5.47;;;;;;;;;;5038729;28;20397;-77
2023/10/22 00:05:05;;;;;;;9.13;6.10;;;;;;;;;;5060164;28;20033;-78
2023/10/22 00:07:32;;;;;;;8.20;5.32;;;;;;;;;;5046865;28;20112;-78
2023/10/22 00:09:57;;;;;;;8.48;5.70;;;;;;;;;;5050956;28;20357;-78
2023/10/22 00:12:23;;;;;;;8.20;5.82;;;;;;;;;;5035470;28;20097;-78
2023/10/22 00:14:48;;;;;;;9.95;6.03;;;;;;;;;;5049719;28;20079;-78
2023/10/22 00:17:13;;;;;;;7.88;5.32;;;;;;;;;;5059627;28;20117;-78
2023/10/22 00:19:39;;;;;;;8.32;6.00;;;;;;;;;;5053582;28;20489;-78
2023/10/22 00:22:04;;;;;;;9.70;5.50;;;;;;;;;;5037026;28;20040;-78
2023/10/22 00:24:31;;;;;;;7.03;5.00;;;;;;;;;;5042873;28;20040;-78
2023/10/22 00:26:57;;;;;;;9.27;5.38;;;;;;;;;;5048103;28;20037;-78
2023/10/22 00:29:23;;;;;;;9.23;5.50;;;;;;;;;;5047956;28;20068;-78
2023/10/22 00:31:48;;;;;;;7.68;5.57;;;;;;;;;;5054237;28;20914;-78
2023/10/22 00:34:14;;;;;;;8.48;5.30;;;;;;;;;;5044543;28;20090;-78
2023/10/22 00:36:41;;;;;;;7.15;5.28;;;;;;;;;;5051627;28;20722;-77
2023/10/22 00:39:07;;;;;;;8.48;5.97;;;;;;;;;;5051117;28;20043;-78
2023/10/22 00:41:32;;;;;;;9.68;6.30;;;;;;;;;;5036018;28;20045;-78
2023/10/22 00:43:58;;;;;;;9.40;6.32;;;;;;;;;;5043768;28;20059;-78
2023/10/22 00:46:24;;;;;;;10.20;6.30;;;;;;;;;;5052468;28;20116;-78
2023/10/22 00:48:51;;;;;;;11.30;6.83;;;;;;;;;;5043126;28;20768;-77
2023/10/22 00:51:17;;;;;;;9.27;6.35;;;;;;;;;;5043901;28;20032;-78
2023/10/22 00:53:43;;;;;;;10.07;5.68;;;;;;;;;;5057103;28;20121;-77
2023/10/22 00:56:09;;;;;;;8.57;5.95;;;;;;;;;;5068194;28;20041;-78
2023/10/22 00:58:36;;;;;;;10.60;5.78;;;;;;;;;;5071288;28;20040;-78
2023/10/22 01:01:06;;;;;;;8.83;5.73;;;;;;;;;;5055227;28;20136;-78
2023/10/22 01:03:31;;;;;;;9.90;6.50;;;;;;;;;;5054881;28;20048;-78
2023/10/22 01:05:57;;;;;;;7.80;5.85;;;;;;;;;;5050292;28;20036;-77
2023/10/22 01:08:25;;;;;;;9.25;5.68;;;;;;;;;;5058008;28;20036;-78
2023/10/22 01:10:51;;;;;;;9.90;5.90;;;;;;;;;;5051229;28;20036;-78
2023/10/22 01:13:17;;;;;;;9.30;5.60;;;;;;;;;;5069777;28;20489;-78
2023/10/22 01:15:42;;;;;;;6.65;4.75;;;;;;;;;;5062943;28;20046;-78
2023/10/22 01:18:08;;;;;;;7.03;5.07;;;;;;;;;;5069069;28;20029;-78
2023/10/22 01:20:33;;;;;;;9.30;4.78;;;;;;;;;;5071654;28;20040;-78
2023/10/22 01:23:02;;;;;;;6.97;5.20;;;;;;;;;;5055448;28;20048;-77
2023/10/22 01:25:27;;;;;;;7.50;5.00;;;;;;;;;;5067103;28;20116;-78
2023/10/22 01:27:53;;;;;;;7.13;5.00;;;;;;;;;;5067864;28;20432;-77
2023/10/22 01:30:18;;;;;;;6.75;4.68;;;;;;;;;;5061547;28;20036;-77
2023/10/22 01:32:43;;;;;;;9.43;5.38;;;;;;;;;;5052440;28;20504;-77
2023/10/22 01:35:10;;;;;;;8.23;5.30;;;;;;;;;;5069542;28;20078;-77
2023/10/22 01:37:36;;;;;;;8.32;4.97;;;;;;;;;;5069391;28;20033;-77
2023/10/22 01:40:05;;;;;;;7.65;5.20;;;;;;;;;;5063261;28;20100;-77
2023/10/22 01:42:31;;;;;;;7.68;4.72;;;;;;;;;;5067928;28;20040;-77
2023/10/22 01:44:57;;;;;;;7.20;4.78;;;;;;;;;;5067852;28;20047;-77
2023/10/22 01:47:22;;;;;;;8.30;5.20;;;;;;;;;;5053017;28;20452;-77
2023/10/22 01:49:48;;;;;;;8.05;4.90;;;;;;;;;;5069586;28;20617;-77
2023/10/22 01:52:14;;;;;;;9.55;5.50;;;;;;;;;;5058612;28;20037;-77
2023/10/22 01:54:40;;;;;;;8.32;5.15;;;;;;;;;;5073687;28;20074;-77
2023/10/22 01:57:06;;;;;;;8.65;5.15;;;;;;;;;;5058383;28;20453;-77
2023/10/22 01:59:31;;;;;;;7.72;4.90;;;;;;;;;;5059932;28;20036;-77
2023/10/22 02:01:57;;;;;;;8.50;4.95;;;;;;;;;;5074115;28;20734;-78
2023/10/22 02:04:22;;;;;;;7.53;5.30;;;;;;;;;;5071982;28;20040;-78
2023/10/22 02:06:47;;;;;;;8.93;5.55;;;;;;;;;;5052662;28;20040;-78
2023/10/22 02:09:15;;;;;;;8.80;5.40;;;;;;;;;;5039560;28;20509;-78
2023/10/22 02:12:01;;;;;;;7.72;5.32;;;;;;;;;;5039165;28;20036;-78
2023/10/22 02:14:26;;;;;;;8.05;5.30;;;;;;;;;;5039703;28;20060;-77
2023/10/22 02:16:52;;;;;;;7.85;5.45;;;;;;;;;;5052643;28;20071;-77
2023/10/22 02:19:18;;;;;;;10.02;5.38;;;;;;;;;;5056884;28;20027;-77
2023/10/22 02:21:44;;;;;;;6.85;4.80;;;;;;;;;;5050038;28;20041;-78
2023/10/22 02:24:10;;;;;;;7.97;4.85;;;;;;;;;;5057064;28;20047;-77
2023/10/22 02:26:35;;;;;;;6.63;4.82;;;;;;;;;;5043017;28;20325;-77
2023/10/22 02:29:01;;;;;;;7.47;4.75;;;;;;;;;;5052793;28;20029;-78
2023/10/22 02:31:26;;;;;;;7.00;5.05;;;;;;;;;;5038226;28;20702;-78
2023/10/22 02:34:01;;;;;;;6.90;5.20;;;;;;;;;;5037923;28;20036;-78
2023/10/22 02:36:27;;;;;;;7.60;5.35;;;;;;;;;;5046554;28;21198;-79
2023/10/22 02:38:52;;;;;;;7.53;4.88;;;;;;;;;;5039074;28;20033;-78
2023/10/22 02:41:17;;;;;;;7.07;4.93;;;;;;;;;;5038565;28;20432;-78
2023/10/22 02:43:43;;;;;;;7.25;4.15;;;;;;;;;;5052893;28;20033;-78
2023/10/22 02:46:08;;;;;;;5.72;3.92;;;;;;;;;;5051636;28;20060;-77
2023/10/22 02:48:34;;;;;;;5.60;4.05;;;;;;;;;;5054579;28;20651;-78
2023/10/22 02:51:03;;;;;;;5.07;3.70;;;;;;;;;;5045188;28;20037;-78
2023/10/22 02:53:28;;;;;;;5.57;3.80;;;;;;;;;;5052739;28;20033;-78
2023/10/22 02:56:03;;;;;;;6.15;3.55;;;;;;;;;;5040720;28;20032;-78
2023/10/22 02:58:29;;;;;;;6.55;3.47;;;;;;;;;;5052474;28;20029;-77
2023/10/22 03:00:56;;;;;;;5.60;3.72;;;;;;;;;;5038632;28;20420;-77
2023/10/22 03:03:24;;;;;;;5.47;3.65;;;;;;;;;;5045112;28;20132;-78
2023/10/22 03:05:49;;;;;;;6.80;3.83;;;;;;;;;;5061275;28;20040;-78
2023/10/22 03:08:15;;;;;;;5.38;3.60;;;;;;;;;;5053592;28;20047;-78
2023/10/22 03:10:43;;;;;;;5.53;3.55;;;;;;;;;;5036121;28;22151;-77
2023/10/22 03:13:09;;;;;;;6.88;3.42;;;;;;;;;;5051353;28;20163;-79
2023/10/22 03:15:34;;;;;;;6.45;3.80;;;;;;;;;;5053169;28;20536;-77
2023/10/22 03:18:00;;;;;;;6.88;3.72;;;;;;;;;;5051470;28;20066;-78
2023/10/22 03:20:25;;;;;;;6.55;4.00;;;;;;;;;;5054075;28;20037;-78
2023/10/22 03:22:51;;;;;;;6.35;4.15;;;;;;;;;;5045155;28;20123;-78
2023/10/22 03:25:18;;;;;;;5.93;4.18;;;;;;;;;;5045094;28;20033;-78
2023/10/22 03:27:44;;;;;;;7.60;4.40;;;;;;;;;;5056820;28;20546;-78
2023/10/22 03:30:10;;;;;;;6.18;4.20;;;;;;;;;;5044848;28;20101;-78
2023/10/22 03:32:36;;;;;;;7.07;4.53;;;;;;;;;;5038733;28;20067;-77
2023/10/22 03:35:05;;;;;;;7.00;4.10;;;;;;;;;;5054452;28;20748;-77
2023/10/22 03:37:31;;;;;;;7.75;4.50;;;;;;;;;;5051546;28;20067;-77
2023/10/22 03:39:56;;;;;;;6.78;4.20;;;;;;;;;;5052796;28;20056;-77
2023/10/22 03:42:22;;;;;;;6.70;4.28;;;;;;;;;;5055733;28;20531;-77
2023/10/22 03:44:48;;;;;;;6.18;4.50;;;;;;;;;;5035936;28;20056;-77
2023/10/22 03:47:13;;;;;;;7.10;4.78;;;;;;;;;;5049415;28;20029;-77
2023/10/22 03:49:38;;;;;;;7.40;4.82;;;;;;;;;;5043652;28;20032;-77
2023/10/22 03:52:05;;;;;;;7.32;4.60;;;;;;;;;;5061152;28;20117;-77
2023/10/22 03:54:31;;;;;;;6.78;4.90;;;;;;;;;;5054259;28;20029;-77
2023/10/22 03:56:56;;;;;;;8.18;4.97;;;;;;;;;;5054687;28;20469;-77
2023/10/22 03:59:22;;;;;;;9.55;4.75;;;;;;;;;;5055036;28;20029;-79
2023/10/22 04:01:47;;;;;;;36.67;18.92;;;;;;;;;;5032600;28;20033;-77
2023/10/22 04:04:13;;;;;;;12.50;7.85;;;;;;;;;;5050540;28;20040;-78
2023/10/22 04:06:38;;;;;;;13.07;6.97;;;;;;;;;;5051903;28;20127;-78
2023/10/22 04:09:03;;;;;;;8.88;5.45;;;;;;;;;;5039964;28;20040;-78
2023/10/22 04:11:29;;;;;;;7.88;4.85;;;;;;;;;;5063331;28;20051;-78
2023/10/22 04:13:55;;;;;;;7.70;5.20;;;;;;;;;;5062482;28;20750;-77
2023/10/22 04:16:20;;;;;;;6.32;4.38;;;;;;;;;;5051549;28;20033;-78
2023/10/22 04:18:45;;;;;;;8.15;4.82;;;;;;;;;;5057126;28;20127;-78
2023/10/22 04:21:14;;;;;;;7.63;4.50;;;;;;;;;;5069774;28;20151;-77
2023/10/22 04:23:40;;;;;;;5.72;4.40;;;;;;;;;;5058399;28;20041;-78
2023/10/22 04:26:11;;;;;;;7.88;5.30;;;;;;;;;;5073819;28;20036;-77
2023/10/22 04:28:37;;;;;;;12.15;6.80;;;;;;;;;;5057992;28;20044;-77
2023/10/22 04:31:02;;;;;;;7.45;4.40;;;;;;;;;;5055489;28;20036;-77
2023/10/22 04:33:27;;;;;;;6.70;4.70;;;;;;;;;;5050776;28;20029;-78
2023/10/22 04:35:56;;;;;;;7.60;4.60;;;;;;;;;;5049398;28;20052;-78
2023/10/22 04:38:24;;;;;;;6.18;4.32;;;;;;;;;;5036870;28;20052;-78
2023/10/22 04:40:49;;;;;;;6.68;4.00;;;;;;;;;;5043465;28;20047;-77
2023/10/22 04:43:14;;;;;;;6.85;4.55;;;;;;;;;;5053810;28;20039;-77
2023/10/22 04:45:47;;;;;;;7.80;4.47;;;;;;;;;;5048943;28;20048;-76
2023/10/22 04:48:13;;;;;;;6.57;4.00;;;;;;;;;;5039224;28;20109;-78
2023/10/22 04:50:38;;;;;;;6.28;4.10;;;;;;;;;;5037915;28;20060;-78
2023/10/22 04:53:04;;;;;;;8.80;4.25;;;;;;;;;;5044561;28;20481;-77
2023/10/22 04:55:30;;;;;;;6.95;4.15;;;;;;;;;;5051057;28;20051;-78
2023/10/22 04:57:56;;;;;;;6.38;3.88;;;;;;;;;;5050311;28;20389;-77
2023/10/22 05:00:22;;;;;;;6.55;4.15;;;;;;;;;;5048123;28;20038;-77
2023/10/22 05:02:48;;;;;;;5.32;3.80;;;;;;;;;;5036313;28;20033;-76
2023/10/22 05:05:14;;;;;;;5.45;4.00;;;;;;;;;;5039435;28;20045;-77
2023/10/22 05:07:40;;;;;;;7.50;4.15;;;;;;;;;;5033581;28;20734;-78
2023/10/22 05:10:06;;;;;;;5.97;3.88;;;;;;;;;;5050456;28;20056;-78
2023/10/22 05:12:31;;;;;;;5.82;3.90;;;;;;;;;;5065504;28;20396;-78
2023/10/22 05:14:57;;;;;;;6.22;4.10;;;;;;;;;;5069061;28;20524;-77
2023/10/22 05:17:24;;;;;;;5.00;3.75;;;;;;;;;;5054430;28;20028;-77
2023/10/22 05:19:50;;;;;;;6.55;4.10;;;;;;;;;;5072798;28;20032;-78
2023/10/22 05:22:17;;;;;;;6.22;3.97;;;;;;;;;;5062624;28;20039;-77
2023/10/22 05:24:51;;;;;;;5.38;3.92;;;;;;;;;;5052521;28;20578;-77
2023/10/22 05:27:17;;;;;;;5.75;4.10;;;;;;;;;;5062680;28;20158;-77
2023/10/22 05:29:43;;;;;;;5.55;4.05;;;;;;;;;;5072563;28;20543;-77
2023/10/22 05:32:09;;;;;;;6.40;4.20;;;;;;;;;;5066053;28;20036;-77
2023/10/22 05:34:34;;;;;;;10.40;4.50;;;;;;;;;;5059829;28;20043;-76
2023/10/22 05:37:00;;;;;;;7.97;4.38;;;;;;;;;;5059481;28;20067;-77
2023/10/22 05:39:25;;;;;;;6.97;4.68;;;;;;;;;;5051796;28;20028;-78
2023/10/22 05:41:51;;;;;;;8.93;4.40;;;;;;;;;;5052258;28;20092;-77
2023/10/22 05:44:18;;;;;;;8.52;4.60;;;;;;;;;;5046296;28;20056;-77
2023/10/22 05:46:44;;;;;;;6.32;4.45;;;;;;;;;;5046110;28;20041;-78
2023/10/22 05:49:29;;;;;;;5.93;4.70;;;;;;;;;;5041077;28;20039;-78
2023/10/22 05:51:55;;;;;;;7.40;4.20;;;;;;;;;;5006776;28;20044;-77
2023/10/22 05:54:20;;;;;;;6.28;4.43;;;;;;;;;;5017871;28;20037;-77
2023/10/22 05:56:46;;;;;;;7.00;4.32;;;;;;;;;;5036591;28;20079;-78
2023/10/22 05:59:11;;;;;;;6.38;4.53;;;;;;;;;;5019490;28;20030;-78
2023/10/22 06:01:38;;;;;;;7.22;4.20;;;;;;;;;;5007284;28;20037;-77
2023/10/22 06:04:06;;;;;;;7.38;4.10;;;;;;;;;;5020365;28;20459;-78
2023/10/22 06:06:31;;;;;;;5.95;4.15;;;;;;;;;;5018424;28;20036;-78
2023/10/22 06:08:56;;;;;;;8.40;4.13;;;;;;;;;;5026898;28;20094;-77
2023/10/22 06:11:22;;;;;;;6.88;4.30;;;;;;;;;;5019692;28;20033;-77
2023/10/22 06:13:48;;;;;;;6.07;4.53;;;;;;;;;;5006425;28;20553;-77
2023/10/22 06:16:13;;;;;;;6.22;4.10;;;;;;;;;;5008919;28;20029;-78
2023/10/22 06:18:39;;;;;;;4.88;3.67;;;;;;;;;;5020465;28;20128;-77
2023/10/22 06:21:11;;;;;;;5.40;4.15;;;;;;;;;;5020096;28;20048;-77
2023/10/22 06:23:37;;;;;;;6.20;4.30;;;;;;;;;;5019513;28;20576;-78
2023/10/22 06:26:02;;;;;;;8.68;4.40;;;;;;;;;;5003214;28;20033;-78
2023/10/22 06:28:27;;;;;;;6.50;4.68;;;;;;;;;;5039453;28;20047;-77
2023/10/22 06:30:53;;;;;;;8.98;4.20;;;;;;;;;;5074919;28;20098;-78
2023/10/22 06:33:18;;;;;;;6.68;4.18;;;;;;;;;;5061990;28;20086;-78
2023/10/22 06:35:44;;;;;;;8.13;4.30;;;;;;;;;;5047340;28;20033;-78
2023/10/22 06:38:10;;;;;;;5.93;4.05;;;;;;;;;;5038066;28;20025;-78
2023/10/22 06:40:36;;;;;;;7.97;4.60;;;;;;;;;;5048646;28;20068;-78
2023/10/22 06:43:02;;;;;;;6.82;3.70;;;;;;;;;;5038005;28;20090;-78
2023/10/22 06:45:28;;;;;;;6.93;4.30;;;;;;;;;;5041445;28;20086;-78
2023/10/22 06:47:56;;;;;;;9.38;3.88;;;;;;;;;;5051636;28;20492;-76
2023/10/22 06:50:21;;;;;;;4.43;3.03;;;;;;;;;;5049000;28;20025;-76
2023/10/22 06:52:47;;;;;;;6.78;3.03;;;;;;;;;;5051676;28;20025;-76
2023/10/22 06:55:12;;;;;;;5.57;3.30;;;;;;;;;;5035539;28;20408;-77
2023/10/22 06:57:40;;;;;;;4.30;3.17;;;;;;;;;;5039211;28;20048;-77
2023/10/22 07:00:10;;;;;;;5.13;3.15;;;;;;;;;;5052302;28;20376;-77
2023/10/22 07:02:35;;;;;;;8.43;3.33;;;;;;;;;;5042667;28;20039;-77
2023/10/22 07:05:00;;;;;;;5.15;3.10;;;;;;;;;;5053275;28;20526;-76
2023/10/22 07:07:26;;;;;;;5.97;3.60;;;;;;;;;;5053899;28;20553;-77
2023/10/22 07:09:52;;;;;;;6.18;3.47;;;;;;;;;;5058986;28;20127;-77
2023/10/22 07:12:20;;;;;;;4.53;3.22;;;;;;;;;;5065215;28;20036;-77
2023/10/22 07:14:45;;;;;;;4.35;3.15;;;;;;;;;;5061097;28;20431;-77
2023/10/22 07:17:10;;;;;;;5.53;3.13;;;;;;;;;;5071122;28;20148;-77
2023/10/22 07:19:36;;;;;;;6.20;3.40;;;;;;;;;;5060719;28;20365;-77
2023/10/22 07:22:01;;;;;;;5.18;3.20;;;;;;;;;;5073041;28;20064;-79
2023/10/22 07:24:28;;;;;;;6.65;3.72;;;;;;;;;;5074134;28;21085;-79
2023/10/22 07:26:53;;;;;;;5.25;3.30;;;;;;;;;;5058766;28;20040;-78
2023/10/22 07:29:18;;;;;;;5.15;3.50;;;;;;;;;;5073060;28;20038;-78
2023/10/22 07:31:47;;;;;;;7.72;3.60;;;;;;;;;;5072059;28;20036;-78
2023/10/22 07:34:15;;;;;;;4.95;3.38;;;;;;;;;;5055269;28;20789;-79
2023/10/22 07:36:41;;;;;;;5.63;3.65;;;;;;;;;;5067637;28;20032;-78
2023/10/22 07:39:07;;;;;;;5.40;3.67;;;;;;;;;;5055180;28;20046;-78
2023/10/22 07:41:33;;;;;;;6.20;3.58;;;;;;;;;;5051065;28;20107;-78
2023/10/22 07:43:58;;;;;;;5.10;3.10;;;;;;;;;;5055727;28;20047;-78
2023/10/22 07:46:27;;;;;;;7.13;3.70;;;;;;;;;;5059651;28;20047;-79
2023/10/22 07:48:53;;;;;;;7.20;3.50;;;;;;;;;;5058641;28;20202;-78
2023/10/22 07:51:22;;;;;;;5.55;3.28;;;;;;;;;;5054437;28;20115;-79
2023/10/22 07:53:48;;;;;;;6.43;3.03;;;;;;;;;;5062344;28;20039;-77
2023/10/22 07:56:19;;;;;;;5.53;2.70;;;;;;;;;;5053446;28;20467;-78
2023/10/22 07:58:44;;;;;;;6.32;2.40;;;;;;;;;;5058474;28;20047;-78
2023/10/22 08:01:10;;;;;;;3.97;2.42;;;;;;;;;;5047008;28;20032;-78
2023/10/22 08:03:36;;;;;;;5.38;2.58;;;;;;;;;;5058109;28;20052;-77
2023/10/22 08:06:03;;;;;;;3.88;2.38;;;;;;;;;;5057711;28;20066;-77
2023/10/22 08:08:29;;;;;;;4.40;2.25;;;;;;;;;;5055389;28;20039;-77
2023/10/22 08:11:02;;;;;;;4.18;2.15;;;;;;;;;;5069464;28;20041;-76
2023/10/22 08:13:28;;;;;;;4.07;1.83;;;;;;;;;;5065014;28;20085;-77
2023/10/22 08:15:54;;;;;;;3.75;1.90;;;;;;;;;;5062618;28;20032;-77
2023/10/22 08:18:20;;;;;;;4.22;2.03;;;;;;;;;;5070968;28;20041;-77
2023/10/22 08:20:45;;;;;;;4.25;1.90;;;;;;;;;;5070451;28;20455;-78
2023/10/22 08:23:11;;;;;;;3.33;1.60;;;;;;;;;;5027828;28;20508;-83
2023/10/22 08:25:37;;;;;;;4.63;1.80;;;;;;;;;;5052128;28;20448;-84
2023/10/22 08:28:08;;;;;;;3.63;1.65;;;;;;;;;;5027905;28;20029;-77
2023/10/22 08:30:43;;;;;;;4.40;1.70;;;;;;;;;;5070485;28;20128;-78
2023/10/22 08:33:08;;;;;;;4.03;1.73;;;;;;;;;;5034339;28;20066;-78
2023/10/22 08:35:34;;;;;;;4.93;1.60;;;;;;;;;;5049751;28;20433;-78
2023/10/22 08:37:59;;;;;;;3.53;1.40;;;;;;;;;;5062619;28;20400;-79
2023/10/22 08:40:24;;;;;;;3.95;1.40;;;;;;;;;;5022716;28;20127;-79
2023/10/22 08:42:51;;;;;;;3.55;1.52;;;;;;;;;;5071389;28;20479;-77
2023/10/22 08:45:19;;;;;;;3.47;1.47;;;;;;;;;;5070838;28;20040;-77
2023/10/22 08:47:46;;;;;;;3.58;1.40;;;;;;;;;;5047800;28;20089;-77
2023/10/22 08:50:11;;;;;;;4.82;1.30;;;;;;;;;;5015624;28;20902;-77
2023/10/22 08:52:42;;;;;;;3.45;1.70;;;;;;;;;;5040607;28;20120;-77
2023/10/22 08:55:11;;;;;;;3.60;1.80;;;;;;;;;;5040044;28;20064;-77
2023/10/22 08:57:41;;;;;;;5.05;1.42;;;;;;;;;;5041415;28;20227;-77
2023/10/22 09:00:14;;;;;;;4.53;1.17;;;;;;;;;;5042189;28;20040;-77
2023/10/22 09:02:43;;;;;;;4.05;1.30;;;;;;;;;;5027766;28;20156;-77
2023/10/22 09:05:13;;;;;;;3.13;1.17;;;;;;;;;;5052186;28;20050;-77
2023/10/22 09:08:14;;;;;;;3.58;1.35;;;;;;;;;;5029605;28;20068;-77
2023/10/22 09:10:49;;;;;;;2.53;1.20;;;;;;;;;;4991864;28;20456;-77
2023/10/22 09:13:22;;;;;;;3.63;1.38;;;;;;;;;;5044183;28;20066;-77
2023/10/22 09:15:50;;;;;;;4.40;1.30;;;;;;;;;;5024528;28;20448;-78
2023/10/22 09:18:20;;;;;;;3.95;1.20;;;;;;;;;;5038618;28;20032;-77
2023/10/22 09:21:31;;;;;;;3.33;1.25;;;;;;;;;;5035981;28;20035;-78
2023/10/22 09:24:32;;;;;;;6.18;1.60;;;;;;;;;;5034739;28;20033;-77
2023/10/22 09:27:00;;;;;;;3.88;1.33;;;;;;;;;;5036464;28;20040;-77
2023/10/22 09:29:32;;;;;;;3.22;1.10;;;;;;;;;;4992844;28;20074;-77
2023/10/22 09:32:02;;;;;;;3.17;1.10;;;;;;;;;;5015240;28;20454;-76
2023/10/22 09:34:35;;;;;;;4.57;1.25;;;;;;;;;;4995401;28;20040;-79
2023/10/22 09:43:53;;;;;;;4.60;1.40;;;;;;;;;;4920088;28;20125;-79
2023/10/22 09:46:54;;;;;;;3.97;1.35;;;;;;;;;;4943040;28;20100;-80
2023/10/22 09:50:06;;;;;;;4.97;1.42;;;;;;;;;;4940613;28;20077;-79
2023/10/22 09:52:56;;;;;;;2.40;1.15;;;;;;;;;;4862180;29;20583;-79
2023/10/22 09:55:26;;;;;;;4.28;1.30;;;;;;;;;;4860802;29;20044;-80
2023/10/22 09:58:16;;;;;;;3.67;1.33;;;;;;;;;;4901221;28;20574;-78
2023/10/22 10:00:48;;;;;;;3.75;1.25;;;;;;;;;;4928731;28;20038;-76
2023/10/22 10:03:14;;;;;;;3.92;1.08;;;;;;;;;;4972338;28;20054;-76
2023/10/22 10:05:46;;;;;;;3.35;1.17;;;;;;;;;;4926437;28;20624;-78
2023/10/22 10:08:15;;;;;;;3.60;1.60;;;;;;;;;;4947788;28;20049;-78
2023/10/22 10:10:47;;;;;;;4.97;1.50;;;;;;;;;;4957397;28;20043;-78
2023/10/22 10:13:15;;;;;;;4.32;1.80;;;;;;;;;;4960249;28;20085;-79
2023/10/22 10:15:57;;;;;;;6.25;2.20;;;;;;;;;;4965956;28;20106;-78
2023/10/22 10:18:25;;;;;;;4.75;1.50;;;;;;;;;;4956429;28;20470;-78
2023/10/22 10:20:52;;;;;;;3.30;1.10;;;;;;;;;;5018861;28;20886;-77
2023/10/22 10:23:21;;;;;;;3.90;1.10;;;;;;;;;;5037990;28;20042;-78
2023/10/22 10:25:47;;;;;;;5.30;1.27;;;;;;;;;;5051169;28;20470;-77
2023/10/22 10:28:13;;;;;;;3.40;1.17;;;;;;;;;;5052352;28;20041;-77
2023/10/22 10:30:39;;;;;;;3.85;1.00;;;;;;;;;;5052952;28;20043;-79
2023/10/22 10:33:05;;;;;;;2.13;0.98;;;;;;;;;;5052089;28;20557;-78
2023/10/22 10:35:42;;;;;;;3.90;1.30;;;;;;;;;;5044055;28;20028;-78
2023/10/22 10:38:13;;;;;;;;;;;;;;;;;;5037550;28;20461;-80
2023/10/22 10:40:41;;;;;;;4.47;1.10;;;;;;;;;;5055292;28;20004;-81
2023/10/22 10:43:06;;;;;;;3.22;1.00;;;;;;;;;;5065073;28;20044;-81
2023/10/22 10:45:32;;;;;;;2.97;0.88;;;;;;;;;;5057286;28;20036;-81
2023/10/22 10:47:57;;;;;;;5.18;0.98;;;;;;;;;;5062154;28;21383;-81
2023/10/22 10:50:23;;;;;;;2.80;0.90;;;;;;;;;;5056780;28;20040;-81
2023/10/22 10:52:48;;;;;;;4.13;1.02;;;;;;;;;;5074177;28;20459;-80
2023/10/22 10:55:20;;;;;;;4.28;0.75;;;;;;;;;;5073557;27;20036;-79
2023/10/22 10:57:50;;;;;;;3.38;0.90;;;;;;;;;;5071233;28;20043;-81
2023/10/22 11:00:30;;;;;;;3.42;1.00;;;;;;;;;;5065099;28;20036;-78
2023/10/22 11:03:11;;;;;;;;;;;;;;;;;;;;;
2023/10/22 11:06:09;;;;;;;3.60;1.00;;;;;;;;;;5038678;28;20266;-81
2023/10/22 11:08:34;;;;;;;2.53;0.70;;;;;;;;;;4998339;28;20153;-81
2023/10/22 11:11:13;;;;;;;5.13;0.73;;;;;;;;;;5027025;28;20055;-83
2023/10/22 11:13:38;;;;;;;4.50;0.95;;;;;;;;;;5035389;28;20485;-81
2023/10/22 11:16:08;;;;;;;2.00;0.70;;;;;;;;;;5042992;28;20043;-81
2023/10/22 11:18:53;;;;;;;4.15;0.90;;;;;;;;;;5041311;28;20769;-81
2023/10/22 11:21:18;;;;;;;4.97;0.90;;;;;;;;;;5022988;28;20043;-81
2023/10/22 11:23:44;;;;;;;3.58;0.77;;;;;;;;;;5031682;28;20507;-78
2023/10/22 11:26:10;;;;;;;3.92;0.80;;;;;;;;;;5061122;28;20037;-78
2023/10/22 11:28:35;;;;;;;3.33;0.80;;;;;;;;;;5040582;28;20065;-78
2023/10/22 11:31:01;;;;;;;8.48;1.35;;;;;;;;;;5036120;28;20035;-78
2023/10/22 11:33:33;;;;;;;1.83;0.50;;;;;;;;;;5039694;28;20033;-79
2023/10/22 11:36:01;;;;;;;3.67;0.60;;;;;;;;;;5048468;28;20508;-78
2023/10/22 11:38:27;;;;;;;3.65;0.63;;;;;;;;;;5051065;28;20043;-78
2023/10/22 11:40:55;;;;;;;3.08;0.50;;;;;;;;;;5050285;28;20044;-78
2023/10/22 11:43:23;;;;;;;4.10;0.73;;;;;;;;;;5035420;28;20037;-78
2023/10/22 11:45:53;;;;;;;3.60;0.90;;;;;;;;;;5050453;28;20369;-78
2023/10/22 11:48:21;;;;;;;3.75;0.80;;;;;;;;;;5043659;28;20099;-77
2023/10/22 11:50:48;;;;;;;2.65;0.60;;;;;;;;;;5033414;28;20060;-78
2023/10/22 11:53:14;;;;;;;1.92;0.40;;;;;;;;;;5039277;28;20067;-78
2023/10/22 11:55:39;;;;;;;3.67;0.50;;;;;;;;;;5035007;28;20100;-78
2023/10/22 11:58:18;;;;;;;2.45;0.80;;;;;;;;;;5052792;28;20727;-77
2023/10/22 12:00:44;;;;;;;2.83;0.60;;;;;;;;;;5059557;28;20044;-77
2023/10/22 12:03:10;;;;;;;3.78;0.70;;;;;;;;;;5035946;28;20531;-78
2023/10/22 12:05:36;;;;;;;2.17;0.50;;;;;;;;;;5055377;28;20040;-78
2023/10/22 12:08:01;;;;;;;3.75;0.70;;;;;;;;;;5053132;28;20375;-80
2023/10/22 12:10:37;;;;;;;3.00;0.60;;;;;;;;;;5052216;28;20028;-78
2023/10/22 12:13:06;;;;;;;3.22;0.80;;;;;;;;;;5009429;28;20442;-78
2023/10/22 12:18:32;;;;;;;2.28;0.55;;;;;;;;;;5040422;28;20035;-78
2023/10/22 12:21:15;;;;;;;2.38;0.50;;;;;;;;;;5060517;28;20033;-77
2023/10/22 12:23:47;;;;;;;3.75;0.60;;;;;;;;;;5051057;28;20128;-77
2023/10/22 12:26:12;;;;;;;3.40;0.60;;;;;;;;;;5053590;28;20584;-77
2023/10/22 12:28:38;;;;;;;3.13;0.73;;;;;;;;;;5042324;28;20119;-78
2023/10/22 12:31:07;;;;;;;2.97;0.70;;;;;;;;;;5046714;28;20028;-79
2023/10/22 12:33:33;;;;;;;3.83;0.60;;;;;;;;;;5040581;28;20128;-80
2023/10/22 12:36:01;;;;;;;2.88;0.60;;;;;;;;;;5035943;28;20191;-79
2023/10/22 12:38:27;;;;;;;3.70;0.60;;;;;;;;;;5052557;28;20056;-78
2023/10/22 12:40:52;;;;;;;2.65;0.70;;;;;;;;;;5052020;28;20036;-78
2023/10/22 12:43:18;;;;;;;3.03;0.57;;;;;;;;;;5052639;28;20033;-78
2023/10/22 12:45:43;;;;;;;3.95;0.63;;;;;;;;;;5033237;28;20079;-78
2023/10/22 12:48:09;;;;;;;4.07;0.80;;;;;;;;;;5037025;28;20029;-79
2023/10/22 12:50:36;;;;;;;3.92;1.00;;;;;;;;;;5044677;28;20072;-78
2023/10/22 12:53:02;;;;;;;3.33;0.90;;;;;;;;;;5036295;28;20028;-78
2023/10/22 12:55:28;;;;;;;3.50;0.70;;;;;;;;;;5032674;28;20123;-77
2023/10/22 12:57:53;;;;;;;2.53;0.73;;;;;;;;;;5051364;28;20094;-78
2023/10/22 13:00:23;;;;;;;2.72;0.57;;;;;;;;;;5057846;28;20040;-78
2023/10/22 13:02:48;;;;;;;2.65;0.60;;;;;;;;;;5049177;28;20396;-78
2023/10/22 13:05:13;;;;;;;3.22;0.73;;;;;;;;;;5070708;28;20051;-78
2023/10/22 13:07:42;;;;;;;3.20;0.80;;;;;;;;;;5069567;28;20515;-78
2023/10/22 13:10:08;;;;;;;2.40;0.68;;;;;;;;;;5058974;28;20039;-77
2023/10/22 13:12:35;;;;;;;3.70;0.80;;;;;;;;;;5069003;28;20466;-78
2023/10/22 13:15:00;;;;;;;5.00;0.80;;;;;;;;;;5080081;28;20056;-78
2023/10/22 13:17:26;;;;;;;6.47;1.10;;;;;;;;;;5055642;28;20063;-78
2023/10/22 13:19:51;;;;;;;4.32;0.90;;;;;;;;;;5062807;28;20039;-78
2023/10/22 13:22:17;;;;;;;4.57;0.68;;;;;;;;;;5067265;28;20036;-78
2023/10/22 13:24:43;;;;;;;3.30;0.65;;;;;;;;;;5073533;28;20072;-78
2023/10/22 13:27:08;;;;;;;3.70;0.98;;;;;;;;;;5052860;28;20056;-78
2023/10/22 13:29:34;;;;;;;4.10;0.75;;;;;;;;;;5036318;28;20041;-77
2023/10/22 13:32:00;;;;;;;4.32;0.90;;;;;;;;;;5030885;28;20423;-78
2023/10/22 13:34:29;;;;;;;4.63;0.85;;;;;;;;;;5048057;28;20427;-78
2023/10/22 13:37:03;;;;;;;4.10;0.88;;;;;;;;;;5039749;28;20590;-78
2023/10/22 13:39:31;;;;;;;3.92;0.70;;;;;;;;;;5052515;28;20746;-77
2023/10/22 13:42:20;;;;;;;4.20;0.70;;;;;;;;;;5054432;28;20056;-77
2023/10/22 13:44:46;;;;;;;3.70;0.80;;;;;;;;;;5044652;28;20522;-77
2023/10/22 13:47:16;;;;;;;3.30;0.60;;;;;;;;;;5034752;28;20067;-78
2023/10/22 13:50:02;;;;;;;5.30;0.80;;;;;;;;;;5053143;28;20574;-77
2023/10/22 13:52:28;;;;;;;3.30;0.80;;;;;;;;;;5066312;28;20409;-77
2023/10/22 13:54:53;;;;;;;3.42;0.60;;;;;;;;;;5055649;28;20081;-78
2023/10/22 13:57:22;;;;;;;4.45;0.85;;;;;;;;;;5071790;28;20036;-78
2023/10/22 13:59:54;;;;;;;3.67;0.90;;;;;;;;;;5072210;28;20462;-78
2023/10/22 14:02:20;;;;;;;5.72;1.85;;;;;;;;;;5077536;28;20037;-78
2023/10/22 14:04:45;;;;;;;5.65;0.90;;;;;;;;;;5059425;28;20154;-78
2023/10/22 14:07:16;;;;;;;6.28;1.20;;;;;;;;;;5059584;28;20456;-77
2023/10/22 14:09:42;;;;;;;3.38;0.80;;;;;;;;;;5066174;28;20119;-77
2023/10/22 14:12:08;;;;;;;4.30;0.80;;;;;;;;;;5064802;28;20035;-77
2023/10/22 14:14:37;;;;;;;4.18;0.90;;;;;;;;;;5083681;28;20052;-76
2023/10/22 14:17:03;;;;;;;3.85;0.80;;;;;;;;;;5075654;28;20036;-77
2023/10/22 14:19:28;;;;;;;3.75;0.80;;;;;;;;;;5066329;28;20111;-77
2023/10/22 14:21:54;;;;;;;7.88;0.85;;;;;;;;;;5059228;28;20885;-77
2023/10/22 14:24:21;;;;;;;4.43;1.02;;;;;;;;;;5072240;28;20040;-77
2023/10/22 14:27:23;;;;;;;6.10;0.90;;;;;;;;;;5065363;28;20044;-77
2023/10/22 14:29:52;;;;;;;3.47;0.90;;;;;;;;;;5038982;28;20055;-76
2023/10/22 14:32:36;;;;;;;4.72;1.10;;;;;;;;;;4979327;28;20033;-77
2023/10/22 14:35:02;;;;;;;4.00;0.90;;;;;;;;;;5039970;28;20051;-76
2023/10/22 14:37:28;;;;;;;4.72;0.70;;;;;;;;;;5035268;28;20029;-78
2023/10/22 14:39:54;;;;;;;4.25;1.02;;;;;;;;;;5052978;28;20029;-77
2023/10/22 14:42:20;;;;;;;2.50;0.50;;;;;;;;;;5038242;28;20045;-77
2023/10/22 14:44:46;;;;;;;4.07;0.63;;;;;;;;;;5043951;28;20045;-77
2023/10/22 14:47:11;;;;;;;5.57;0.80;;;;;;;;;;5050602;28;20483;-77
2023/10/22 14:49:37;;;;;;;4.80;0.90;;;;;;;;;;5061124;28;20044;-77
2023/10/22 14:52:02;;;;;;;3.63;0.77;;;;;;;;;;5057107;28;20114;-77
2023/10/22 14:54:28;;;;;;;3.00;0.82;;;;;;;;;;5074548;28;22131;-77
2023/10/22 14:56:54;;;;;;;4.38;0.80;;;;;;;;;;5031545;28;20043;-76